Time;durP1;ratioP1;P1;durP2;ratioP2;P2;SDS_P1;SDS_P2;PMS_P1;PMS_P2;Temp;Humidity;BMP_temperature;BMP_pressure;BME280_temperature;BME280_humidity;BME280_pressure;Samples;Min_cycle;Max_cycle;Signal;HPM_P1;HPM_P2
2021/10/19 00:01:28;;;;;;;23.95;11.88;;;;;;;13.69;83.48;101803.28;5053389;28;20033;-64
2021/10/19 00:03:53;;;;;;;20.90;11.57;;;;;;;13.68;83.48;101799.88;5052357;28;20024;-65
2021/10/19 00:06:18;;;;;;;19.63;11.02;;;;;;;13.66;83.77;101801.84;5053035;28;20028;-64
2021/10/19 00:08:43;;;;;;;18.13;11.15;;;;;;;13.67;83.92;101805.28;5052756;28;20478;-64
2021/10/19 00:11:09;;;;;;;15.73;11.13;;;;;;;13.65;83.85;101796.84;5053028;28;20017;-63
2021/10/19 00:13:36;;;;;;;19.48;11.48;;;;;;;13.64;83.59;101792.66;5053297;28;20025;-65
2021/10/19 00:16:03;;;;;;;19.27;12.05;;;;;;;13.66;84.19;101795.84;5053159;28;20475;-64
2021/10/19 00:18:29;;;;;;;24.85;11.40;;;;;;;13.69;83.48;101792.88;5053430;28;20047;-62
2021/10/19 00:20:54;;;;;;;16.42;11.77;;;;;;;13.67;83.79;101798.28;5052930;28;20499;-63
2021/10/19 00:23:19;;;;;;;17.42;11.80;;;;;;;13.63;83.86;101770.25;5035304;28;20044;-63
2021/10/19 00:25:45;;;;;;;18.83;11.82;;;;;;;13.72;83.66;101779.53;5035250;28;20055;-63
2021/10/19 00:28:10;;;;;;;19.27;11.73;;;;;;;13.72;83.63;101779.53;5053095;28;20460;-63
2021/10/19 00:30:35;;;;;;;16.58;11.57;;;;;;;13.73;83.78;101778.56;5053308;28;20028;-63
2021/10/19 00:33:00;;;;;;;17.42;11.23;;;;;;;13.68;83.74;101780.91;5053358;28;20025;-63
2021/10/19 00:35:27;;;;;;;20.83;11.52;;;;;;;13.69;83.78;101780.69;5053217;28;20031;-64
2021/10/19 00:37:52;;;;;;;15.73;11.10;;;;;;;13.71;83.67;101781.31;5035187;28;20467;-63
2021/10/19 00:40:17;;;;;;;17.67;11.27;;;;;;;13.63;84.17;101772.84;5052962;28;20025;-64
2021/10/19 00:42:43;;;;;;;18.60;11.30;;;;;;;13.65;84.00;101771.66;5034743;28;20461;-63
2021/10/19 00:45:09;;;;;;;19.02;11.68;;;;;;;13.66;84.19;101781.06;5052829;28;20025;-64
2021/10/19 00:47:35;;;;;;;18.40;11.20;;;;;;;13.70;84.02;101769.34;5034810;28;20025;-64
2021/10/19 00:50:02;;;;;;;22.02;11.45;;;;;;;13.72;84.13;101771.72;5053188;28;20517;-64
2021/10/19 00:52:28;;;;;;;17.25;11.45;;;;;;;13.69;84.12;101764.31;5035659;28;20032;-65
2021/10/19 00:54:54;;;;;;;19.20;11.73;;;;;;;13.73;83.97;101763.78;5054059;28;20086;-64
2021/10/19 00:57:19;;;;;;;17.80;11.70;;;;;;;13.68;84.44;101770.50;5053800;28;20430;-65
2021/10/19 00:59:46;;;;;;;18.60;11.48;;;;;;;13.74;84.25;101767.16;5054350;28;20482;-64
2021/10/19 01:02:15;;;;;;;21.20;11.23;;;;;;;13.72;84.28;101774.34;5054582;28;20025;-64
2021/10/19 01:04:42;;;;;;;17.17;11.48;;;;;;;13.73;84.33;101763.78;5054362;28;20520;-64
2021/10/19 01:07:12;;;;;;;19.50;11.88;;;;;;;13.74;84.58;101756.78;5054070;28;20017;-64
2021/10/19 01:09:38;;;;;;;19.25;11.82;;;;;;;13.73;84.58;101762.97;5053030;28;20386;-63
2021/10/19 01:12:08;;;;;;;20.65;11.95;;;;;;;13.65;84.71;101755.28;5035097;28;20024;-63
2021/10/19 01:14:34;;;;;;;16.98;12.05;;;;;;;13.67;85.03;101750.72;5052774;28;20028;-64
2021/10/19 01:17:00;;;;;;;17.17;11.52;;;;;;;13.66;85.31;101741.31;5056459;28;20471;-63
2021/10/19 01:19:25;;;;;;;22.15;11.93;;;;;;;13.63;85.76;101747.66;5056298;28;20037;-63
2021/10/19 01:21:52;;;;;;;19.85;11.95;;;;;;;13.53;86.49;101744.56;5056046;28;20061;-64
2021/10/19 01:24:18;;;;;;;24.13;12.95;;;;;;;13.53;86.89;101742.78;5056127;28;20025;-62
2021/10/19 01:26:43;;;;;;;19.45;11.93;;;;;;;13.51;87.71;101736.94;5055871;28;20059;-63
2021/10/19 01:29:08;;;;;;;21.25;12.82;;;;;;;13.49;88.21;101731.16;5038157;28;20379;-63
2021/10/19 01:31:33;;;;;;;20.33;13.15;;;;;;;13.43;88.50;101718.88;5037945;28;20036;-63
2021/10/19 01:33:59;;;;;;;21.63;12.18;;;;;;;13.43;88.95;101724.06;5037973;28;20470;-63
2021/10/19 01:36:24;;;;;;;17.83;12.88;;;;;;;13.32;89.36;101699.41;5055706;28;20044;-64
2021/10/19 01:38:49;;;;;;;21.58;13.20;;;;;;;13.38;90.00;101710.03;5037774;28;20116;-62
2021/10/19 01:41:14;;;;;;;21.45;13.18;;;;;;;13.31;90.34;101695.19;5052491;23;20542;-41
2021/10/19 01:43:42;;;;;;;21.90;13.60;;;;;;;13.33;90.80;101700.22;5015218;28;20037;-42
2021/10/19 01:46:07;;;;;;;23.10;14.25;;;;;;;13.32;90.89;101693.38;5016374;28;20014;-42
2021/10/19 01:48:32;;;;;;;22.40;13.23;;;;;;;13.33;90.51;101692.41;5015909;28;20475;-42
2021/10/19 01:50:58;;;;;;;20.52;13.93;;;;;;;13.32;90.80;101688.19;5016236;28;20030;-42
2021/10/19 01:53:24;;;;;;;22.08;13.93;;;;;;;13.32;90.89;101686.44;5015962;28;20030;-42
2021/10/19 01:55:49;;;;;;;22.05;14.68;;;;;;;13.29;91.31;101685.97;5015909;28;20502;-42
2021/10/19 01:58:21;;;;;;;21.92;13.68;;;;;;;13.31;91.09;101686.59;5015772;28;20412;-42
2021/10/19 02:00:47;;;;;;;23.65;13.95;;;;;;;13.30;91.34;101691.00;5016071;28;20033;-42
2021/10/19 02:03:12;;;;;;;24.33;14.40;;;;;;;13.29;91.58;101679.00;5015730;28;20029;-42
2021/10/19 02:05:37;;;;;;;22.13;14.25;;;;;;;13.31;91.40;101695.19;5015711;28;20029;-42
2021/10/19 02:08:03;;;;;;;23.38;14.23;;;;;;;13.22;91.42;101666.91;5016121;28;20344;-42
2021/10/19 02:10:30;;;;;;;21.75;13.93;;;;;;;13.33;91.21;101676.84;5015782;28;20026;-42
2021/10/19 02:12:55;;;;;;;21.27;14.60;;;;;;;13.31;91.72;101669.22;5015864;28;20150;-41
2021/10/19 02:15:25;;;;;;;24.13;14.10;;;;;;;13.38;91.39;101669.31;5015560;28;20120;-42
2021/10/19 02:17:50;;;;;;;26.83;14.57;;;;;;;13.36;91.24;101666.09;5015754;28;20080;-42
2021/10/19 02:20:16;;;;;;;23.75;14.80;;;;;;;13.38;91.54;101664.13;5015861;28;20026;-44
2021/10/19 02:22:41;;;;;;;25.48;14.93;;;;;;;13.31;91.85;101655.44;5015683;28;20037;-41
2021/10/19 02:25:07;;;;;;;22.40;14.70;;;;;;;13.40;91.39;101664.72;5015601;28;20026;-41
2021/10/19 02:27:32;;;;;;;21.80;14.20;;;;;;;13.43;92.02;101658.38;5014234;28;20038;-41
2021/10/19 02:29:58;;;;;;;24.45;14.88;;;;;;;13.43;91.62;101658.38;5015835;28;20079;-43
2021/10/19 02:32:23;;;;;;;23.00;14.50;;;;;;;13.47;91.74;101665.63;5030399;28;20033;-42
2021/10/19 02:34:48;;;;;;;23.40;14.90;;;;;;;13.49;91.78;101663.66;5015239;28;20507;-42
2021/10/19 02:37:13;;;;;;;21.30;14.38;;;;;;;13.49;91.66;101663.66;5015191;28;20014;-43
2021/10/19 02:39:38;;;;;;;26.58;14.93;;;;;;;13.58;91.35;101663.50;5015070;28;20467;-41
2021/10/19 02:42:04;;;;;;;21.42;14.45;;;;;;;13.57;91.64;101662.69;5014695;28;20050;-42
2021/10/19 02:44:29;;;;;;;26.60;14.65;;;;;;;13.64;91.53;101658.38;5015254;28;20044;-43
2021/10/19 02:46:55;;;;;;;23.98;14.80;;;;;;;13.67;91.46;101658.00;5015159;28;20029;-43
2021/10/19 02:49:20;;;;;;;25.70;15.07;;;;;;;13.66;91.68;101661.59;5014929;28;20052;-41
2021/10/19 02:51:45;;;;;;;26.90;15.48;;;;;;;13.67;91.81;101660.63;5014788;28;20022;-41
2021/10/19 02:54:10;;;;;;;26.75;15.98;;;;;;;13.70;91.89;101652.44;5014696;28;20033;-41
2021/10/19 02:56:37;;;;;;;24.73;15.48;;;;;;;13.75;91.76;101647.50;5015010;28;20033;-42
2021/10/19 02:59:03;;;;;;;22.17;15.35;;;;;;;13.76;91.67;101649.09;5014949;28;20038;-42
2021/10/19 03:01:28;;;;;;;23.00;15.48;;;;;;;13.79;91.89;101644.53;5014950;28;20030;-42
2021/10/19 03:03:53;;;;;;;24.95;16.35;;;;;;;13.81;91.90;101645.13;5014537;28;20369;-42
2021/10/19 03:06:19;;;;;;;25.98;16.50;;;;;;;13.82;92.07;101636.38;5014843;28;20025;-42
2021/10/19 03:08:44;;;;;;;24.27;15.98;;;;;;;13.87;91.78;101647.00;5014497;28;20477;-43
2021/10/19 03:11:09;;;;;;;22.52;15.25;;;;;;;13.90;91.89;101633.63;5014499;28;20108;-42
2021/10/19 03:13:35;;;;;;;24.35;15.25;;;;;;;13.90;92.06;101624.03;5015015;28;20038;-42
2021/10/19 03:16:00;;;;;;;24.58;15.65;;;;;;;13.93;91.83;101628.88;5014328;28;20052;-43
2021/10/19 03:18:25;;;;;;;21.77;15.77;;;;;;;13.94;92.04;101629.66;5014411;28;20022;-43
2021/10/19 03:20:50;;;;;;;24.05;15.73;;;;;;;13.94;92.08;101621.88;5014338;28;20030;-43
2021/10/19 03:23:16;;;;;;;27.48;16.40;;;;;;;13.93;92.17;101615.88;5014598;28;20084;-42
2021/10/19 03:25:42;;;;;;;25.35;15.82;;;;;;;13.98;92.08;101610.91;5014226;28;20469;-42
2021/10/19 03:28:07;;;;;;;24.35;15.70;;;;;;;13.99;92.34;101611.72;5014325;28;20424;-43
2021/10/19 03:30:32;;;;;;;23.02;15.50;;;;;;;14.00;92.03;101613.31;5014712;28;20026;-43
2021/10/19 03:32:58;;;;;;;23.00;15.40;;;;;;;13.95;92.19;101613.91;5014190;28;20071;-42
2021/10/19 03:35:23;;;;;;;23.42;16.00;;;;;;;13.97;92.63;101613.69;5014751;28;20054;-43
2021/10/19 03:37:48;;;;;;;24.05;16.20;;;;;;;13.94;92.78;101606.28;5014957;28;20018;-42
2021/10/19 03:40:14;;;;;;;23.02;16.85;;;;;;;13.95;92.84;101607.88;5014029;28;20435;-41
2021/10/19 03:42:41;;;;;;;23.88;17.38;;;;;;;13.95;93.05;101605.28;5013741;28;20038;-43
2021/10/19 03:45:10;;;;;;;27.05;17.73;;;;;;;13.91;93.44;101617.84;5014257;28;20053;-42
2021/10/19 03:47:35;;;;;;;26.20;17.48;;;;;;;13.95;93.28;101608.69;5013831;28;20037;-42
2021/10/19 03:50:00;;;;;;;24.75;16.67;;;;;;;13.97;93.28;101617.09;5013927;28;20381;-42
2021/10/19 03:52:26;;;;;;;27.77;18.08;;;;;;;13.91;93.84;101612.66;5013912;28;20049;-42
2021/10/19 03:54:51;;;;;;;23.45;17.05;;;;;;;13.94;93.92;101622.66;5014127;28;20026;-42
2021/10/19 03:57:16;;;;;;;25.52;17.40;;;;;;;13.93;93.57;101626.25;5013829;28;20026;-42
2021/10/19 03:59:42;;;;;;;30.23;18.05;;;;;;;13.96;93.83;101631.09;5013966;28;20041;-42
2021/10/19 04:02:07;;;;;;;24.15;16.73;;;;;;;13.97;93.97;101627.47;4996253;28;20164;-42
2021/10/19 04:04:34;;;;;;;25.70;16.95;;;;;;;13.97;93.83;101630.06;5014517;28;20026;-42
2021/10/19 04:07:00;;;;;;;26.20;17.40;;;;;;;13.96;94.24;101633.69;5013632;28;20480;-42
2021/10/19 04:09:25;;;;;;;25.75;16.83;;;;;;;13.92;94.13;101635.03;5013734;28;20109;-42
2021/10/19 04:11:50;;;;;;;25.58;16.98;;;;;;;13.95;94.21;101631.25;5013831;28;20053;-42
2021/10/19 04:14:15;;;;;;;26.42;17.55;;;;;;;13.99;94.25;101630.69;5013832;28;20037;-42
2021/10/19 04:16:41;;;;;;;24.63;17.13;;;;;;;13.98;94.06;101626.50;5013582;28;20357;-42
2021/10/19 04:19:06;;;;;;;25.75;17.40;;;;;;;13.92;94.61;101632.44;5014121;28;20026;-42
2021/10/19 04:21:31;;;;;;;28.55;17.80;;;;;;;13.94;94.69;101643.44;5013781;28;20034;-42
2021/10/19 04:23:56;;;;;;;29.67;18.00;;;;;;;13.95;94.55;101631.25;5013532;28;20024;-42
2021/10/19 04:26:22;;;;;;;26.65;17.58;;;;;;;13.96;94.62;101635.47;5013467;28;20026;-41
2021/10/19 04:28:47;;;;;;;26.95;17.60;;;;;;;13.91;95.12;101640.44;4995818;28;20045;-42
2021/10/19 04:31:13;;;;;;;24.67;17.00;;;;;;;13.96;95.02;101636.28;5013505;28;20105;-42
2021/10/19 04:33:39;;;;;;;26.98;17.67;;;;;;;13.95;94.91;101634.69;5013649;28;20018;-42
2021/10/19 04:36:05;;;;;;;24.45;16.73;;;;;;;13.91;95.41;101632.63;5013459;28;20032;-42
2021/10/19 04:38:32;;;;;;;23.58;17.25;;;;;;;13.96;94.87;101631.09;5013646;28;20368;-42
2021/10/19 04:40:57;;;;;;;25.60;17.05;;;;;;;13.96;95.16;101631.09;5013339;28;20120;-42
2021/10/19 04:43:23;;;;;;;23.35;16.63;;;;;;;13.98;95.05;101634.31;5012325;28;20089;-42
2021/10/19 04:45:48;;;;;;;22.45;16.15;;;;;;;14.02;94.97;101639.91;5012381;28;20350;-42
2021/10/19 04:48:14;;;;;;;23.17;16.67;;;;;;;14.05;94.74;101644.75;5012567;28;20026;-43
2021/10/19 04:50:40;;;;;;;23.27;15.98;;;;;;;14.05;94.86;101636.94;5014175;28;20052;-42
2021/10/19 04:53:05;;;;;;;21.77;16.08;;;;;;;14.05;94.91;101633.53;5016278;28;20033;-42
2021/10/19 04:55:30;;;;;;;21.27;15.68;;;;;;;14.07;94.91;101637.56;5015888;28;20068;-42
2021/10/19 04:57:55;;;;;;;22.52;15.40;;;;;;;14.04;94.95;101626.72;5015707;28;20492;-42
2021/10/19 05:00:21;;;;;;;24.50;14.98;;;;;;;13.96;95.43;101605.09;5016155;28;20041;-43
2021/10/19 05:02:47;;;;;;;20.45;15.63;;;;;;;14.03;95.31;101605.13;5015663;28;20026;-42
2021/10/19 05:05:15;;;;;;;20.73;15.15;;;;;;;13.98;95.42;101597.91;5015550;28;20045;-41
2021/10/19 05:07:40;;;;;;;19.30;14.95;;;;;;;14.04;95.62;101601.56;5015715;28;20030;-42
2021/10/19 05:10:06;;;;;;;19.15;15.00;;;;;;;14.00;95.40;101593.31;5015774;28;20354;-41
2021/10/19 05:12:31;;;;;;;22.23;15.68;;;;;;;14.05;95.43;101597.16;5015412;28;20022;-42
2021/10/19 05:14:57;;;;;;;19.48;14.65;;;;;;;14.09;95.25;101599.16;5015904;28;20026;-42
2021/10/19 05:17:23;;;;;;;20.15;14.57;;;;;;;14.06;95.25;101580.56;5015334;28;20026;-41
2021/10/19 05:19:48;;;;;;;18.23;14.15;;;;;;;14.07;95.48;101584.75;5015595;28;20036;-41
2021/10/19 05:22:13;;;;;;;19.65;14.45;;;;;;;14.05;95.73;101597.16;5015268;28;20033;-41
2021/10/19 05:24:38;;;;;;;18.80;14.50;;;;;;;14.06;95.82;101588.38;5015770;28;20049;-41
2021/10/19 05:27:04;;;;;;;20.45;14.23;;;;;;;14.05;95.95;101578.97;5015154;28;20025;-42
2021/10/19 05:29:30;;;;;;;21.13;14.55;;;;;;;14.02;96.04;101571.56;5015466;28;20510;-42
2021/10/19 05:31:56;;;;;;;19.25;14.63;;;;;;;14.05;95.77;101564.19;5015429;28;20041;-42
2021/10/19 05:34:21;;;;;;;19.85;13.85;;;;;;;14.10;95.60;101574.81;5015082;28;20034;-42
2021/10/19 05:36:46;;;;;;;18.65;14.40;;;;;;;14.06;95.32;101560.56;5015167;28;20030;-42
2021/10/19 05:39:15;;;;;;;19.02;14.65;;;;;;;14.14;95.62;101560.44;5015000;28;20438;-41
2021/10/19 05:41:40;;;;;;;18.17;13.80;;;;;;;14.15;95.68;101572.41;4961405;28;1042685;-41
2021/10/19 05:44:07;;;;;;;17.90;13.70;;;;;;;14.19;95.44;101565.06;5016061;28;20065;-42
2021/10/19 05:46:32;;;;;;;19.08;13.52;;;;;;;14.16;95.49;101562.84;4998439;28;20392;-42
2021/10/19 05:48:57;;;;;;;18.17;13.57;;;;;;;14.22;95.44;101567.28;5015860;28;20029;-41
2021/10/19 05:51:23;;;;;;;19.35;13.25;;;;;;;14.25;95.30;101563.50;5015823;28;20357;-42
2021/10/19 05:53:48;;;;;;;20.30;13.35;;;;;;;14.22;95.24;101562.88;5015963;28;20028;-42
2021/10/19 05:56:13;;;;;;;17.15;13.05;;;;;;;14.28;95.27;101569.09;5015847;28;20049;-42
2021/10/19 05:58:39;;;;;;;16.15;13.50;;;;;;;14.23;95.32;101571.47;5015848;28;20022;-41
2021/10/19 06:01:04;;;;;;;18.40;14.02;;;;;;;14.27;95.61;101580.50;5015624;28;20381;-42
2021/10/19 06:03:29;;;;;;;17.30;13.15;;;;;;;14.29;95.46;101580.31;5015758;28;20037;-42
2021/10/19 06:05:56;;;;;;;17.02;13.02;;;;;;;14.31;95.35;101586.13;5015919;28;20053;-42
2021/10/19 06:08:21;;;;;;;20.23;13.32;;;;;;;14.29;95.41;101591.50;5015442;28;20468;-42
2021/10/19 06:10:47;;;;;;;16.95;13.38;;;;;;;14.31;95.33;101586.13;5015567;28;20080;-42
2021/10/19 06:13:13;;;;;;;17.27;12.93;;;;;;;14.27;95.78;101590.91;5015531;28;20025;-42
2021/10/19 06:15:40;;;;;;;16.90;12.98;;;;;;;14.32;95.49;101590.31;5015488;28;20026;-42
2021/10/19 06:18:06;;;;;;;17.38;14.18;;;;;;;14.31;95.72;101583.53;5015772;28;20022;-42
2021/10/19 06:20:31;;;;;;;16.90;13.23;;;;;;;14.38;95.62;101595.53;5015466;28;20032;-42
2021/10/19 06:22:56;;;;;;;19.00;13.98;;;;;;;14.39;95.53;101589.38;5015581;28;20089;-42
2021/10/19 06:25:22;;;;;;;18.50;13.85;;;;;;;14.38;95.51;101595.53;4997791;28;20034;-42
2021/10/19 06:27:47;;;;;;;18.73;14.35;;;;;;;14.37;95.51;101587.94;5015752;28;20480;-42
2021/10/19 06:30:12;;;;;;;17.65;13.98;;;;;;;14.38;95.88;101592.94;5015359;28;20092;-43
2021/10/19 06:32:40;;;;;;;18.20;14.82;;;;;;;14.37;95.88;101590.56;5015006;28;20048;-42
2021/10/19 06:35:05;;;;;;;20.15;15.25;;;;;;;14.38;96.01;101584.34;5015145;28;20029;-42
2021/10/19 06:37:30;;;;;;;20.13;15.18;;;;;;;14.33;96.19;101582.34;5015184;28;20018;-43
2021/10/19 06:39:56;;;;;;;18.13;14.50;;;;;;;14.31;96.10;101568.72;5015683;28;20527;-43
2021/10/19 06:42:22;;;;;;;20.75;15.20;;;;;;;14.40;96.13;101587.56;5014832;28;20049;-43
2021/10/19 06:44:47;;;;;;;21.33;15.95;;;;;;;14.39;96.13;101584.16;5015054;28;20030;-42
2021/10/19 06:47:13;;;;;;;20.52;15.80;;;;;;;14.44;96.21;101583.56;5014652;28;20034;-42
2021/10/19 06:49:38;;;;;;;24.17;16.05;;;;;;;14.49;96.02;101580.41;5014752;28;20030;-42
2021/10/19 06:52:04;;;;;;;20.67;14.98;;;;;;;14.50;95.89;101576.78;5014998;28;20029;-42
2021/10/19 06:54:29;;;;;;;20.55;15.88;;;;;;;14.52;95.83;101582.66;5014961;28;20464;-42
2021/10/19 06:56:54;;;;;;;21.42;15.65;;;;;;;14.53;95.70;101586.84;5014880;28;20034;-41
2021/10/19 06:59:20;;;;;;;20.08;15.80;;;;;;;14.53;96.05;101586.84;5014930;28;20026;-43
2021/10/19 07:01:45;;;;;;;22.67;16.25;;;;;;;14.52;96.19;101578.25;5014545;28;20033;-42
2021/10/19 07:04:10;;;;;;;21.20;16.23;;;;;;;14.56;95.73;101574.28;5014492;28;20033;-42
2021/10/19 07:06:35;;;;;;;24.73;16.23;;;;;;;14.57;96.05;101564.66;5014503;28;20174;-42
2021/10/19 07:09:02;;;;;;;21.77;16.35;;;;;;;14.54;95.95;101570.25;5014728;28;20022;-41
2021/10/19 07:11:29;;;;;;;22.42;16.48;;;;;;;14.54;96.42;101568.47;5014758;28;20036;-43
2021/10/19 07:13:54;;;;;;;23.83;17.00;;;;;;;14.58;96.39;101571.47;5013941;28;20033;-41
2021/10/19 07:16:20;;;;;;;22.13;16.63;;;;;;;14.62;96.31;101578.69;5014447;28;20034;-47
2021/10/19 07:18:45;;;;;;;22.25;15.82;;;;;;;14.63;96.28;101575.09;5014614;28;20021;-43
2021/10/19 07:21:10;;;;;;;19.10;15.05;;;;;;;14.62;96.21;101588.31;5014332;28;20021;-43
2021/10/19 07:23:36;;;;;;;20.02;15.18;;;;;;;14.68;96.14;101571.94;5014254;28;20451;-43
2021/10/19 07:26:01;;;;;;;21.45;16.05;;;;;;;14.70;96.38;101584.72;5014191;28;20107;-42
2021/10/19 07:28:26;;;;;;;22.33;16.17;;;;;;;14.70;96.25;101582.91;5014089;28;20030;-42
2021/10/19 07:30:51;;;;;;;21.92;15.85;;;;;;;14.74;95.98;101591.94;5014148;28;20522;-42
2021/10/19 07:33:18;;;;;;;22.45;17.00;;;;;;;14.78;96.14;101580.16;5014150;28;20041;-43
2021/10/19 07:35:44;;;;;;;21.65;15.63;;;;;;;14.73;96.24;101574.75;5014106;28;20029;-43
2021/10/19 07:38:11;;;;;;;23.42;16.13;;;;;;;14.79;96.13;101581.78;4996516;28;20017;-43
2021/10/19 07:40:37;;;;;;;23.02;15.70;;;;;;;14.85;95.76;101582.78;5013990;28;20029;-43
2021/10/19 07:43:02;;;;;;;21.15;16.48;;;;;;;14.85;95.93;101577.59;5013876;28;20519;-43
2021/10/19 07:45:29;;;;;;;21.00;15.48;;;;;;;14.84;96.03;101571.56;5014464;28;20030;-43
2021/10/19 07:47:59;;;;;;;22.27;16.00;;;;;;;14.83;96.18;101563.97;5014098;28;20480;-42
2021/10/19 07:50:29;;;;;;;20.80;15.95;;;;;;;14.89;96.30;101568.38;5013762;28;20029;-41
2021/10/19 07:52:54;;;;;;;21.10;16.13;;;;;;;14.87;95.90;101578.16;5014585;28;20040;-43
2021/10/19 07:55:20;;;;;;;23.73;16.88;;;;;;;14.93;96.16;101576.59;5013780;28;20022;-43
2021/10/19 07:57:48;;;;;;;22.63;16.42;;;;;;;14.97;96.24;101570.00;5013977;28;20372;-43
2021/10/19 08:00:14;;;;;;;20.40;15.35;;;;;;;14.93;96.12;101563.56;5013644;28;20114;-42
2021/10/19 08:02:42;;;;;;;21.13;15.32;;;;;;;14.93;96.11;101553.97;5013744;28;20057;-43
2021/10/19 08:05:15;;;;;;;22.35;15.77;;;;;;;14.99;95.94;101561.00;4995920;28;20079;-43
2021/10/19 08:07:47;;;;;;;;;;;;;;;15.01;96.33;101550.38;5014312;28;20464;-43
2021/10/19 08:10:17;;;;;;;21.92;15.80;;;;;;;15.05;96.12;101555.00;5013894;28;20008;-43
2021/10/19 08:12:42;;;;;;;19.33;15.13;;;;;;;15.04;96.24;101558.59;4996451;28;20018;-43
2021/10/19 08:15:08;;;;;;;20.52;15.57;;;;;;;15.11;96.10;101563.84;5013580;28;20407;-43
2021/10/19 08:17:34;;;;;;;19.00;15.48;;;;;;;15.06;96.20;101556.59;5013859;28;20018;-42
2021/10/19 08:19:59;;;;;;;19.48;14.88;;;;;;;15.15;95.91;101556.44;5013561;28;20515;-43
2021/10/19 08:22:29;;;;;;;18.92;14.60;;;;;;;15.20;95.89;101557.44;5013840;28;20029;-43
2021/10/19 08:24:56;;;;;;;17.80;13.88;;;;;;;15.03;95.80;101532.78;5014104;28;20029;-45
2021/10/19 08:27:23;;;;;;;17.20;14.18;;;;;;;15.21;95.87;101556.44;4999868;28;20030;-43
2021/10/19 08:29:49;;;;;;;17.08;13.15;;;;;;;15.18;95.94;101556.03;5017789;28;20026;-43
2021/10/19 08:32:14;;;;;;;17.05;13.18;;;;;;;15.19;96.15;101561.06;5017530;28;20380;-43
2021/10/19 08:34:39;;;;;;;18.60;14.07;;;;;;;15.18;96.27;101556.03;5017401;28;20026;-43
2021/10/19 08:37:05;;;;;;;17.85;13.73;;;;;;;15.20;96.28;101554.84;5017384;28;20025;-43
2021/10/19 08:39:30;;;;;;;16.67;12.85;;;;;;;15.26;95.67;101561.06;5018234;28;20029;-43
2021/10/19 08:41:55;;;;;;;16.80;13.43;;;;;;;15.28;96.01;101559.06;5017193;28;20046;-43
2021/10/19 08:44:20;;;;;;;19.67;13.90;;;;;;;15.31;96.11;101558.66;5017773;28;20022;-43
2021/10/19 08:46:46;;;;;;;13.68;11.65;;;;;;;15.30;95.69;101557.84;5017218;28;20112;-43
2021/10/19 08:49:11;;;;;;;18.33;13.68;;;;;;;15.32;96.01;101558.44;4999580;28;20076;-43
2021/10/19 08:51:39;;;;;;;16.55;13.50;;;;;;;15.33;96.08;101554.84;5017521;28;20034;-43
2021/10/19 08:54:09;;;;;;;16.63;13.30;;;;;;;15.39;95.98;101549.84;5016974;28;20104;-43
2021/10/19 08:56:38;;;;;;;18.20;13.68;;;;;;;15.40;96.07;101560.06;5017291;28;20033;-43
2021/10/19 08:59:04;;;;;;;16.02;13.02;;;;;;;15.41;95.86;101555.66;5017246;28;20468;-43
2021/10/19 09:01:38;;;;;;;15.65;12.90;;;;;;;15.45;95.90;101562.06;5016952;28;20025;-43
2021/10/19 09:04:08;;;;;;;15.63;12.30;;;;;;;15.46;95.87;101556.66;5016827;28;20041;-42
2021/10/19 09:06:35;;;;;;;14.77;11.88;;;;;;;15.43;96.09;101554.44;4999722;28;20022;-42
2021/10/19 09:09:16;;;;;;;16.23;12.48;;;;;;;15.50;96.15;101555.25;5017465;28;20022;-42
2021/10/19 09:11:43;;;;;;;13.60;11.25;;;;;;;15.58;95.72;101544.63;5017160;28;20025;-43
2021/10/19 09:14:10;;;;;;;14.48;11.82;;;;;;;15.69;95.50;101545.84;5016976;28;20029;-42
2021/10/19 09:16:40;;;;;;;13.57;11.13;;;;;;;15.68;95.59;101546.03;5016708;28;20029;-42
2021/10/19 09:19:05;;;;;;;12.95;10.52;;;;;;;15.73;95.65;101535.81;5016804;28;20092;-42
2021/10/19 09:21:31;;;;;;;12.63;10.35;;;;;;;15.73;95.41;101544.44;5016546;28;20449;-42
2021/10/19 09:24:15;;;;;;;12.55;9.70;;;;;;;15.79;95.10;101545.44;5016783;28;20030;-43
2021/10/19 09:26:50;;;;;;;11.85;9.68;;;;;;;15.87;95.06;101554.84;5016344;28;20034;-42
2021/10/19 09:29:15;;;;;;;10.07;8.70;;;;;;;15.80;95.25;101557.47;5016252;28;20022;-43
2021/10/19 09:31:40;;;;;;;10.48;9.18;;;;;;;15.79;95.82;101567.09;5016807;28;20037;-43
2021/10/19 09:34:10;;;;;;;11.13;9.40;;;;;;;15.76;96.02;101554.47;5016342;28;20033;-43
2021/10/19 09:36:36;;;;;;;14.18;9.68;;;;;;;15.81;95.83;101558.28;5015869;28;20443;-43
2021/10/19 09:39:01;;;;;;;13.38;9.63;;;;;;;15.86;96.14;101558.47;5016256;28;20076;-43
2021/10/19 09:41:26;;;;;;;11.98;9.55;;;;;;;15.90;95.76;101570.88;4998274;28;20021;-43
2021/10/19 09:43:52;;;;;;;11.85;9.43;;;;;;;15.82;95.95;101555.44;5016438;28;20026;-42
2021/10/19 09:46:22;;;;;;;10.73;9.13;;;;;;;15.88;96.03;101561.66;5016634;28;20032;-40
2021/10/19 09:48:49;;;;;;;11.82;9.80;;;;;;;15.87;96.51;101573.91;5015989;28;20026;-40
2021/10/19 09:51:15;;;;;;;12.55;9.70;;;;;;;15.94;96.01;101569.50;5015959;28;20445;-40
2021/10/19 09:53:42;;;;;;;12.68;10.18;;;;;;;15.93;96.14;101570.47;5015862;28;20056;-39
2021/10/19 09:56:08;;;;;;;13.93;10.32;;;;;;;15.98;96.35;101564.66;5015930;28;20117;-41
2021/10/19 09:58:35;;;;;;;15.88;10.20;;;;;;;16.03;95.87;101572.69;5016057;28;20046;-40
2021/10/19 10:01:02;;;;;;;13.75;10.20;;;;;;;16.02;95.99;101569.28;5015764;28;20033;-40
2021/10/19 10:03:29;;;;;;;15.10;10.30;;;;;;;16.03;96.22;101559.66;5015906;28;20029;-41
2021/10/19 10:05:54;;;;;;;14.25;10.45;;;;;;;16.10;95.84;101562.22;5015589;28;20026;-39
2021/10/19 10:08:22;;;;;;;13.63;10.73;;;;;;;16.14;95.70;101566.84;5015768;28;20464;-40
2021/10/19 10:10:52;;;;;;;12.88;9.43;;;;;;;16.12;95.59;101566.25;5015545;28;20021;-41
2021/10/19 10:13:17;;;;;;;15.15;9.98;;;;;;;16.18;96.03;101555.00;5015775;28;20032;-38
2021/10/19 10:15:43;;;;;;;14.13;10.57;;;;;;;16.20;95.83;101544.38;4997991;28;20515;-40
2021/10/19 10:18:10;;;;;;;14.80;10.77;;;;;;;16.23;95.83;101551.78;5015649;28;20026;-40
2021/10/19 10:20:41;;;;;;;15.70;10.20;;;;;;;16.29;95.43;101550.94;4998606;28;20025;-40
2021/10/19 10:23:23;;;;;;;18.85;11.02;;;;;;;16.30;95.93;101547.31;5015700;28;20037;-40
2021/10/19 10:25:52;;;;;;;14.57;10.77;;;;;;;16.32;95.80;101553.16;5016109;28;20080;-39
2021/10/19 10:28:27;;;;;;;13.90;10.32;;;;;;;16.40;95.37;101549.50;5015370;28;20033;-41
2021/10/19 10:31:05;;;;;;;16.75;10.70;;;;;;;16.37;95.48;101557.72;5015729;28;20496;-41
2021/10/19 10:33:42;;;;;;;15.88;11.27;;;;;;;16.49;95.50;101553.50;5015180;28;20022;-40
2021/10/19 10:36:13;;;;;;;15.30;10.93;;;;;;;16.50;95.71;101549.88;5015354;28;20125;-41
2021/10/19 10:38:52;;;;;;;15.02;10.95;;;;;;;16.52;95.70;101547.84;4997517;28;20108;-40
2021/10/19 10:41:17;;;;;;;15.75;11.23;;;;;;;16.59;95.07;101542.59;5015344;28;20075;-40
2021/10/19 10:43:44;;;;;;;13.43;10.48;;;;;;;16.67;95.21;101542.38;5014921;28;20030;-40
2021/10/19 10:46:19;;;;;;;15.35;10.77;;;;;;;16.68;95.24;101549.16;5015265;28;20048;-41
2021/10/19 10:48:45;;;;;;;16.27;11.43;;;;;;;16.70;95.14;101545.34;5014343;28;20076;-41
2021/10/19 10:51:13;;;;;;;16.63;11.50;;;;;;;16.76;95.16;101542.91;5015162;28;20049;-41
2021/10/19 10:53:43;;;;;;;17.42;10.68;;;;;;;16.82;94.97;101545.50;5014657;28;20527;-41
2021/10/19 10:56:10;;;;;;;14.30;10.40;;;;;;;16.91;94.78;101538.22;5015372;28;20084;-45
2021/10/19 10:58:38;;;;;;;17.92;11.27;;;;;;;16.98;94.33;101539.00;5014903;28;20037;-40
2021/10/19 11:01:22;;;;;;;19.92;10.85;;;;;;;16.97;94.82;101539.19;5014483;28;20032;-40
2021/10/19 11:03:50;;;;;;;16.20;10.95;;;;;;;16.90;94.76;101528.81;5014698;28;20049;-41
2021/10/19 11:06:17;;;;;;;16.55;10.93;;;;;;;16.97;94.70;101534.78;4997091;28;20030;-40